createdAt,value
2019-02-27T00:04:16.348Z,54.60
2019-02-27T00:09:20.451Z,54.70
2019-02-27T00:14:24.455Z,55.00
2019-02-27T00:19:30.963Z,54.90
2019-02-27T00:24:34.139Z,54.80
2019-02-27T00:29:38.136Z,55.00
2019-02-27T00:34:42.113Z,54.90
2019-02-27T00:39:46.083Z,55.60
2019-02-27T00:44:50.136Z,54.60
2019-02-27T00:49:54.035Z,55.60
2019-02-27T00:54:58.873Z,54.90
2019-02-27T01:00:06.311Z,55.10
2019-02-27T01:05:09.477Z,54.60
2019-02-27T01:10:13.688Z,54.70
2019-02-27T01:15:17.701Z,54.80
2019-02-27T01:20:21.667Z,55.50
2019-02-27T01:25:25.733Z,54.60
2019-02-27T01:30:29.702Z,55.30
2019-02-27T01:35:33.759Z,55.40
2019-02-27T01:40:37.813Z,55.50
2019-02-27T01:45:42.009Z,55.90
2019-02-27T01:50:45.988Z,55.30
2019-02-27T01:55:49.960Z,55.30
2019-02-27T02:00:56.114Z,55.00
2019-02-27T02:05:59.870Z,54.90
2019-02-27T02:11:03.974Z,55.00
2019-02-27T02:16:34.095Z,54.90
2019-02-27T02:22:25.751Z,55.70
2019-02-27T02:27:54.812Z,55.90
2019-02-27T02:33:14.888Z,55.80
2019-02-27T02:39:19.153Z,55.20
2019-02-27T02:44:46.211Z,55.40
2019-02-27T02:50:44.492Z,55.70
2019-02-27T02:56:32.821Z,54.80
2019-02-27T03:02:08.201Z,55.10
2019-02-27T03:07:37.915Z,54.80
2019-02-27T03:13:24.897Z,55.50
2019-02-27T03:19:26.847Z,55.20
2019-02-27T03:25:05.589Z,55.00
2019-02-27T03:30:53.228Z,55.70
2019-02-27T03:36:35.942Z,55.20
2019-02-27T03:42:01.193Z,55.70
2019-02-27T03:47:25.598Z,55.20
2019-02-27T03:53:26.672Z,55.90
2019-02-27T03:59:08.066Z,55.60
2019-02-27T04:04:53.695Z,55.50
2019-02-27T04:09:57.644Z,55.00
2019-02-27T04:15:01.851Z,54.80
2019-02-27T04:20:05.975Z,54.60
2019-02-27T04:25:10.062Z,54.30
2019-02-27T04:30:16.183Z,54.40
2019-02-27T04:35:20.155Z,54.40
2019-02-27T04:40:24.103Z,54.60
2019-02-27T04:45:28.075Z,54.70
2019-02-27T04:50:31.960Z,54.30
2019-02-27T04:55:35.972Z,54.60
2019-02-27T05:00:39.851Z,54.70
2019-02-27T05:05:43.792Z,54.40
2019-02-27T05:10:47.843Z,54.40
2019-02-27T05:15:51.880Z,54.40
2019-02-27T05:20:55.895Z,54.40
2019-02-27T05:25:59.769Z,54.40
2019-02-27T05:31:03.792Z,54.40
2019-02-27T05:36:07.939Z,54.60
2019-02-27T05:41:11.895Z,55.10
2019-02-27T05:46:16.013Z,54.40
2019-02-27T05:51:19.947Z,54.50
2019-02-27T05:56:23.907Z,55.10
2019-02-27T06:01:27.863Z,54.40
2019-02-27T06:06:31.798Z,54.40
2019-02-27T06:11:35.694Z,54.20
2019-02-27T06:16:40.797Z,54.50
2019-02-27T06:21:44.969Z,54.50
2019-02-27T06:26:48.908Z,54.70
2019-02-27T06:31:52.774Z,54.50
2019-02-27T06:36:56.665Z,54.90
2019-02-27T06:42:00.595Z,54.70
2019-02-27T06:47:06.972Z,54.80
2019-02-27T06:52:10.131Z,53.90
2019-02-27T06:57:14.001Z,54.40
2019-02-27T07:02:19.078Z,55.00
2019-02-27T07:07:23.688Z,54.40
2019-02-27T07:12:27.583Z,54.60
2019-02-27T07:17:31.808Z,54.70
2019-02-27T07:22:36.447Z,54.60
2019-02-27T07:27:40.461Z,54.40
2019-02-27T07:32:44.472Z,54.70
2019-02-27T07:37:48.415Z,54.60
2019-02-27T07:42:52.301Z,55.30
2019-02-27T07:47:56.330Z,54.80
2019-02-27T07:53:00.191Z,54.70
2019-02-27T07:58:04.208Z,54.50
2019-02-27T08:03:09.861Z,54.50
2019-02-27T08:08:13.675Z,54.60
2019-02-27T08:13:17.647Z,54.40
2019-02-27T08:18:29.757Z,54.70
2019-02-27T08:23:27.249Z,55.00
2019-02-27T08:28:31.128Z,55.20
2019-02-27T08:33:35.081Z,55.20
2019-02-27T08:38:39.027Z,55.80
2019-02-27T08:43:42.902Z,55.90
2019-02-27T08:48:49.887Z,55.90
2019-02-27T08:53:52.467Z,55.70
2019-02-27T08:58:56.415Z,56.40
2019-02-27T09:04:00.447Z,56.80
2019-02-27T09:09:07.898Z,56.90
2019-02-27T09:14:12.063Z,56.70
2019-02-27T09:19:16.234Z,57.10
2019-02-27T09:24:20.119Z,56.70
2019-02-27T09:29:24.131Z,57.50
2019-02-27T09:34:28.039Z,57.30
2019-02-27T09:39:32.127Z,58.50
2019-02-27T09:44:36.649Z,59.70
2019-02-27T09:49:41.545Z,59.50
2019-02-27T09:54:46.938Z,59.10
2019-02-27T09:59:53.659Z,58.50
2019-02-27T10:05:01.424Z,58.20
2019-02-27T10:10:03.016Z,58.30
2019-02-27T10:15:08.250Z,59.30
2019-02-27T10:20:13.564Z,59.40
2019-02-27T10:25:17.595Z,59.00
2019-02-27T10:30:21.616Z,60.00
2019-02-27T10:35:26.807Z,59.30
2019-02-27T10:40:31.421Z,59.00
2019-02-27T10:45:35.483Z,58.90
2019-02-27T10:50:40.867Z,58.80
2019-02-27T10:55:46.401Z,59.70
2019-02-27T11:00:51.183Z,59.30
2019-02-27T11:05:55.659Z,59.60
2019-02-27T11:10:59.740Z,59.20
2019-02-27T11:16:03.716Z,59.20
2019-02-27T11:21:07.732Z,59.60
2019-02-27T11:26:11.924Z,59.70
2019-02-27T11:31:16.023Z,59.70
2019-02-27T11:36:20.081Z,58.70
2019-02-27T11:41:24.054Z,59.60
2019-02-27T11:46:28.014Z,59.30
2019-02-27T11:51:31.963Z,59.90
2019-02-27T11:56:36.788Z,60.80
2019-02-27T12:01:40.740Z,60.00
2019-02-27T12:06:44.686Z,59.30
2019-02-27T12:11:49.464Z,59.10
2019-02-27T12:16:53.984Z,58.80
2019-02-27T12:22:00.248Z,58.80
2019-02-27T12:27:03.691Z,58.20
2019-02-27T12:32:07.699Z,59.20
2019-02-27T12:37:23.674Z,58.60
2019-02-27T12:42:17.387Z,60.00
2019-02-27T12:47:21.342Z,60.20
2019-02-27T12:52:25.363Z,61.80
2019-02-27T12:57:29.316Z,60.00
2019-02-27T13:02:35.858Z,60.20
2019-02-27T13:07:39.348Z,61.60
2019-02-27T13:12:43.392Z,60.40
2019-02-27T13:17:47.439Z,58.10
2019-02-27T13:22:51.460Z,59.40
2019-02-27T13:27:55.412Z,60.00
2019-02-27T13:33:01.148Z,59.00
2019-02-27T13:38:05.295Z,57.70
2019-02-27T13:43:09.327Z,58.50
2019-02-27T13:48:13.303Z,56.90
2019-02-27T13:53:17.516Z,56.20
2019-02-27T13:58:21.463Z,56.00
2019-02-27T14:03:25.635Z,55.10
2019-02-27T14:08:32.177Z,54.40
2019-02-27T14:13:35.384Z,58.50
2019-02-27T14:18:39.264Z,59.50
2019-02-27T14:23:46.890Z,61.90
2019-02-27T14:28:52.235Z,59.90
2019-02-27T14:33:55.678Z,56.80
2019-02-27T14:38:59.861Z,56.80
2019-02-27T14:44:04.000Z,59.20
2019-02-27T14:49:08.046Z,55.40
2019-02-27T14:54:12.033Z,55.30
2019-02-27T14:59:15.996Z,53.90
2019-02-27T15:04:20.055Z,52.90
2019-02-27T15:09:24.031Z,53.30
2019-02-27T15:14:31.002Z,55.20
2019-02-27T15:19:35.437Z,55.40
2019-02-27T15:24:39.451Z,54.10
2019-02-27T15:29:43.309Z,53.30
2019-02-27T15:34:47.179Z,52.70
2019-02-27T15:39:52.052Z,53.90
2019-02-27T15:44:56.919Z,53.20
2019-02-27T15:50:02.589Z,52.90
2019-02-27T15:55:06.778Z,53.20
2019-02-27T16:00:17.686Z,54.70
2019-02-27T16:05:18.867Z,55.50
2019-02-27T16:10:23.259Z,56.00
2019-02-27T16:15:27.286Z,56.50
2019-02-27T16:20:31.278Z,55.60
2019-02-27T16:25:35.239Z,54.00
2019-02-27T16:30:39.172Z,59.00
2019-02-27T16:35:43.272Z,56.80
2019-02-27T16:40:52.080Z,55.30
2019-02-27T16:45:53.164Z,54.60
2019-02-27T16:51:00.033Z,54.40
2019-02-27T16:56:02.935Z,55.60
2019-02-27T17:01:08.363Z,56.20
2019-02-27T17:06:14.151Z,56.80
2019-02-27T17:11:19.346Z,57.00
2019-02-27T17:16:23.370Z,57.40
2019-02-27T17:21:27.321Z,57.20
2019-02-27T17:26:31.203Z,57.10
2019-02-27T17:31:35.591Z,59.20
2019-02-27T17:36:39.590Z,56.40
2019-02-27T17:41:44.728Z,56.40
2019-02-27T17:46:51.688Z,56.90
2019-02-27T17:51:55.000Z,57.00
2019-02-27T17:56:58.867Z,56.70
2019-02-27T18:02:02.880Z,56.40
2019-02-27T18:07:09.200Z,56.40
2019-02-27T18:12:12.431Z,56.10
2019-02-27T18:17:16.300Z,56.10
2019-02-27T18:22:20.343Z,56.10
2019-02-27T18:27:25.510Z,56.20
2019-02-27T18:32:29.559Z,56.00
2019-02-27T18:37:33.508Z,55.60
2019-02-27T18:42:37.525Z,55.60
2019-02-27T18:47:43.142Z,55.40
2019-02-27T18:52:47.193Z,55.60
2019-02-27T18:57:51.496Z,55.40
2019-02-27T19:02:55.961Z,55.30
2019-02-27T19:07:59.979Z,55.30
2019-02-27T19:13:03.991Z,55.10
2019-02-27T19:18:08.155Z,55.10
2019-02-27T19:23:17.290Z,55.10
2019-02-27T19:28:18.152Z,55.20
2019-02-27T19:33:22.103Z,55.20
2019-02-27T19:38:26.171Z,55.30
2019-02-27T19:43:30.660Z,55.40
2019-02-27T19:48:34.591Z,55.00
2019-02-27T19:53:39.616Z,55.20
2019-02-27T19:58:44.215Z,55.10
2019-02-27T20:03:48.222Z,55.20
2019-02-27T20:08:52.432Z,55.40
2019-02-27T20:13:56.447Z,55.20
2019-02-27T20:19:00.307Z,55.20
2019-02-27T20:24:14.044Z,55.20
2019-02-27T20:29:10.480Z,55.10
2019-02-27T20:34:14.359Z,55.30
2019-02-27T20:39:18.467Z,55.10
2019-02-27T20:44:22.406Z,55.10
2019-02-27T20:49:26.784Z,55.10
2019-02-27T20:54:30.666Z,55.30
2019-02-27T20:59:34.539Z,55.60
2019-02-27T21:04:39.185Z,55.20
2019-02-27T21:09:45.213Z,55.40
2019-02-27T21:14:49.423Z,55.30
2019-02-27T21:19:53.456Z,55.00
2019-02-27T21:24:58.576Z,55.30
2019-02-27T21:30:02.923Z,55.30
2019-02-27T21:35:07.367Z,55.00
2019-02-27T21:40:12.337Z,55.00
2019-02-27T21:45:16.859Z,55.30
2019-02-27T21:50:20.870Z,55.10
2019-02-27T21:55:24.822Z,55.20
2019-02-27T22:00:29.479Z,55.20
2019-02-27T22:05:42.313Z,55.10
2019-02-27T22:10:39.223Z,55.10
2019-02-27T22:15:43.236Z,55.30
2019-02-27T22:20:47.191Z,55.20
2019-02-27T22:25:51.234Z,55.30
2019-02-27T22:30:55.091Z,55.20
2019-02-27T22:35:59.020Z,55.10
2019-02-27T22:41:02.956Z,55.30
2019-02-27T22:46:07.011Z,55.30
2019-02-27T22:51:12.579Z,55.30
2019-02-27T22:56:17.626Z,55.10
2019-02-27T23:01:30.081Z,55.20
2019-02-27T23:06:34.119Z,55.10
2019-02-27T23:11:39.695Z,55.40
2019-02-27T23:16:43.729Z,55.40
2019-02-27T23:21:47.751Z,55.30
2019-02-27T23:26:54.793Z,55.20
2019-02-27T23:31:57.466Z,55.50
2019-02-27T23:37:01.420Z,55.40
2019-02-27T23:42:05.435Z,55.20
2019-02-27T23:47:09.459Z,55.30
2019-02-27T23:52:13.331Z,55.40
2019-02-27T23:57:17.368Z,55.30
